Unity Plaza, Connecticut
Current Conditions -  °F | °C
As of 4:53 PM on Wednesday 22 Oct 2014 (Local Time) from KHFD Reporting Station
Overcast Overcast  
Wind Chill: 52°   Ceiling: 2000
Heat Index: 52°   Visibility: 10mi
Dew Point: 48°   Wind: 17mph
Humidity: 86%   Direction: 10°N
Pressure: 29.87"   Gusts: 23mph
Location:  41.7893°N, 72.6669°W
Report Text: KHFD 222053Z 01015G20KT 10SM OVC020 11/09 A2987 RMK AO2 RAB24E41 SLP115 P0000 60002 T01110089 56022
Loading
Personal Weather Stations






























Interactive Weather Map
Tropical Storm Tracking
New forecast layout! Learn more

10-Day Weather Forecast

Advertisements
Track Severe Weather on mobile